sensor_id;sensor_type;location;lat;lon;timestamp;temperature;humidity
4207;DHT22;2117;47.972;7.830;2023-09-12T01:02:12;19.30;99.90
4207;DHT22;2117;47.972;7.830;2023-09-12T01:04:38;19.30;99.90
4207;DHT22;2117;47.972;7.830;2023-09-12T01:07:04;19.30;99.90
4207;DHT22;2117;47.972;7.830;2023-09-12T01:09:31;19.40;99.90
4207;DHT22;2117;47.972;7.830;2023-09-12T01:11:57;19.40;99.90
4207;DHT22;2117;47.972;7.830;2023-09-12T01:14:22;19.40;99.90
4207;DHT22;2117;47.972;7.830;2023-09-12T01:16:48;19.30;99.90
4207;DHT22;2117;47.972;7.830;2023-09-12T01:19:14;19.30;99.90
4207;DHT22;2117;47.972;7.830;2023-09-12T01:24:52;19.40;99.90
4207;DHT22;2117;47.972;7.830;2023-09-12T01:27:31;19.30;99.90
4207;DHT22;2117;47.972;7.830;2023-09-12T01:30:02;19.50;99.90
4207;DHT22;2117;47.972;7.830;2023-09-12T01:32:29;19.50;99.90
4207;DHT22;2117;47.972;7.830;2023-09-12T01:34:55;19.60;99.90
4207;DHT22;2117;47.972;7.830;2023-09-12T01:37:21;19.60;99.90
4207;DHT22;2117;47.972;7.830;2023-09-12T01:39:47;19.60;99.90
4207;DHT22;2117;47.972;7.830;2023-09-12T01:42:16;19.70;99.90
4207;DHT22;2117;47.972;7.830;2023-09-12T01:44:44;19.70;99.90
4207;DHT22;2117;47.972;7.830;2023-09-12T01:47:11;19.70;99.90
4207;DHT22;2117;47.972;7.830;2023-09-12T01:49:40;19.80;99.90
4207;DHT22;2117;47.972;7.830;2023-09-12T01:52:06;19.80;99.90
4207;DHT22;2117;47.972;7.830;2023-09-12T01:54:33;19.80;99.90
4207;DHT22;2117;47.972;7.830;2023-09-12T01:56:59;19.80;99.90
4207;DHT22;2117;47.972;7.830;2023-09-12T01:59:25;19.80;99.90
4207;DHT22;2117;47.972;7.830;2023-09-12T02:01:51;19.70;99.90
4207;DHT22;2117;47.972;7.830;2023-09-12T02:04:17;19.70;99.90
4207;DHT22;2117;47.972;7.830;2023-09-12T02:06:42;19.70;99.90
4207;DHT22;2117;47.972;7.830;2023-09-12T02:09:08;19.70;99.90
4207;DHT22;2117;47.972;7.830;2023-09-12T02:11:34;19.70;99.90
4207;DHT22;2117;47.972;7.830;2023-09-12T02:13:59;19.70;99.90
4207;DHT22;2117;47.972;7.830;2023-09-12T02:16:25;19.70;99.90
4207;DHT22;2117;47.972;7.830;2023-09-12T02:18:50;19.70;99.90
4207;DHT22;2117;47.972;7.830;2023-09-12T02:21:16;19.80;99.90
4207;DHT22;2117;47.972;7.830;2023-09-12T02:23:42;19.80;99.90
4207;DHT22;2117;47.972;7.830;2023-09-12T02:26:07;19.80;99.90
4207;DHT22;2117;47.972;7.830;2023-09-12T02:28:33;19.80;99.90
4207;DHT22;2117;47.972;7.830;2023-09-12T02:30:58;19.80;99.90
4207;DHT22;2117;47.972;7.830;2023-09-12T02:33:24;19.80;99.90
4207;DHT22;2117;47.972;7.830;2023-09-12T02:35:50;19.80;99.90
4207;DHT22;2117;47.972;7.830;2023-09-12T02:38:16;19.80;99.90
4207;DHT22;2117;47.972;7.830;2023-09-12T02:40:42;19.80;99.90
4207;DHT22;2117;47.972;7.830;2023-09-12T02:43:07;19.80;99.90
4207;DHT22;2117;47.972;7.830;2023-09-12T02:45:33;19.80;99.90
4207;DHT22;2117;47.972;7.830;2023-09-12T02:47:58;19.80;99.90
4207;DHT22;2117;47.972;7.830;2023-09-12T02:50:24;19.80;99.90
4207;DHT22;2117;47.972;7.830;2023-09-12T02:52:49;19.70;99.90
4207;DHT22;2117;47.972;7.830;2023-09-12T02:55:15;19.80;99.90
4207;DHT22;2117;47.972;7.830;2023-09-12T02:57:40;19.70;99.90
4207;DHT22;2117;47.972;7.830;2023-09-12T03:00:07;19.70;99.90
4207;DHT22;2117;47.972;7.830;2023-09-12T03:02:33;19.70;99.90
4207;DHT22;2117;47.972;7.830;2023-09-12T03:04:59;19.70;99.90
4207;DHT22;2117;47.972;7.830;2023-09-12T03:07:24;19.60;99.90
4207;DHT22;2117;47.972;7.830;2023-09-12T03:09:50;19.50;99.90
4207;DHT22;2117;47.972;7.830;2023-09-12T03:12:16;19.50;99.90
4207;DHT22;2117;47.972;7.830;2023-09-12T03:14:41;19.50;99.90
4207;DHT22;2117;47.972;7.830;2023-09-12T03:17:07;19.50;99.90
4207;DHT22;2117;47.972;7.830;2023-09-12T03:19:32;19.40;99.90
4207;DHT22;2117;47.972;7.830;2023-09-12T03:21:58;19.40;99.90
4207;DHT22;2117;47.972;7.830;2023-09-12T03:24:23;19.40;99.90
4207;DHT22;2117;47.972;7.830;2023-09-12T03:26:51;19.40;99.90
4207;DHT22;2117;47.972;7.830;2023-09-12T03:29:16;19.40;99.90
4207;DHT22;2117;47.972;7.830;2023-09-12T03:31:42;19.40;99.90
4207;DHT22;2117;47.972;7.830;2023-09-12T03:34:07;19.40;99.90
4207;DHT22;2117;47.972;7.830;2023-09-12T03:36:33;19.40;99.90
4207;DHT22;2117;47.972;7.830;2023-09-12T03:38:58;19.40;99.90
4207;DHT22;2117;47.972;7.830;2023-09-12T03:41:24;19.40;99.90
4207;DHT22;2117;47.972;7.830;2023-09-12T03:43:53;19.40;99.90
4207;DHT22;2117;47.972;7.830;2023-09-12T03:46:19;19.40;99.90
4207;DHT22;2117;47.972;7.830;2023-09-12T03:48:45;19.40;99.90
4207;DHT22;2117;47.972;7.830;2023-09-12T03:51:11;19.30;99.90
4207;DHT22;2117;47.972;7.830;2023-09-12T03:53:37;19.40;99.90
4207;DHT22;2117;47.972;7.830;2023-09-12T03:56:02;19.30;99.90
4207;DHT22;2117;47.972;7.830;2023-09-12T03:58:28;19.30;99.90
4207;DHT22;2117;47.972;7.830;2023-09-12T04:00:53;19.30;99.90
4207;DHT22;2117;47.972;7.830;2023-09-12T04:03:19;19.30;99.90
4207;DHT22;2117;47.972;7.830;2023-09-12T04:05:46;19.30;99.90
4207;DHT22;2117;47.972;7.830;2023-09-12T04:08:12;19.30;99.90
4207;DHT22;2117;47.972;7.830;2023-09-12T04:10:38;19.30;99.90
4207;DHT22;2117;47.972;7.830;2023-09-12T04:13:03;19.30;99.90
4207;DHT22;2117;47.972;7.830;2023-09-12T04:15:29;19.20;99.90
4207;DHT22;2117;47.972;7.830;2023-09-12T04:17:55;19.30;99.90
4207;DHT22;2117;47.972;7.830;2023-09-12T04:20:20;19.20;99.90
4207;DHT22;2117;47.972;7.830;2023-09-12T04:22:46;19.10;99.90
4207;DHT22;2117;47.972;7.830;2023-09-12T04:25:12;19.10;99.90
4207;DHT22;2117;47.972;7.830;2023-09-12T04:27:37;19.20;99.90
4207;DHT22;2117;47.972;7.830;2023-09-12T04:30:03;19.20;99.90
4207;DHT22;2117;47.972;7.830;2023-09-12T04:32:29;19.20;99.90
4207;DHT22;2117;47.972;7.830;2023-09-12T04:34:55;19.20;99.90
4207;DHT22;2117;47.972;7.830;2023-09-12T04:37:20;19.20;99.90
4207;DHT22;2117;47.972;7.830;2023-09-12T04:39:46;19.20;99.90
4207;DHT22;2117;47.972;7.830;2023-09-12T04:42:11;19.20;99.90
4207;DHT22;2117;47.972;7.830;2023-09-12T04:44:39;19.20;99.90
4207;DHT22;2117;47.972;7.830;2023-09-12T04:47:05;19.30;99.90
4207;DHT22;2117;47.972;7.830;2023-09-12T04:49:31;19.20;99.90
4207;DHT22;2117;47.972;7.830;2023-09-12T04:51:57;19.30;99.90
4207;DHT22;2117;47.972;7.830;2023-09-12T04:54:22;19.30;99.90
4207;DHT22;2117;47.972;7.830;2023-09-12T04:56:48;19.30;99.90
4207;DHT22;2117;47.972;7.830;2023-09-12T04:59:13;19.30;99.90
4207;DHT22;2117;47.972;7.830;2023-09-12T05:01:40;19.30;99.90
4207;DHT22;2117;47.972;7.830;2023-09-12T05:04:05;19.30;99.90
4207;DHT22;2117;47.972;7.830;2023-09-12T05:06:31;19.30;99.90
4207;DHT22;2117;47.972;7.830;2023-09-12T05:08:56;19.20;99.90
4207;DHT22;2117;47.972;7.830;2023-09-12T05:11:22;19.20;99.90
4207;DHT22;2117;47.972;7.830;2023-09-12T05:13:49;19.20;99.90
4207;DHT22;2117;47.972;7.830;2023-09-12T05:16:15;19.40;99.90
4207;DHT22;2117;47.972;7.830;2023-09-12T05:18:40;19.60;99.90
4207;DHT22;2117;47.972;7.830;2023-09-12T05:21:06;19.90;99.90
4207;DHT22;2117;47.972;7.830;2023-09-12T05:23:31;19.90;99.90
4207;DHT22;2117;47.972;7.830;2023-09-12T05:25:57;19.90;99.90
4207;DHT22;2117;47.972;7.830;2023-09-12T05:28:23;20.10;99.90
4207;DHT22;2117;47.972;7.830;2023-09-12T05:30:49;20.20;99.90
4207;DHT22;2117;47.972;7.830;2023-09-12T05:33:16;20.20;99.90
4207;DHT22;2117;47.972;7.830;2023-09-12T05:35:41;20.20;99.90
4207;DHT22;2117;47.972;7.830;2023-09-12T05:38:07;20.30;99.90
4207;DHT22;2117;47.972;7.830;2023-09-12T05:40:32;20.10;99.90
4207;DHT22;2117;47.972;7.830;2023-09-12T05:42:58;20.10;99.90
4207;DHT22;2117;47.972;7.830;2023-09-12T05:45:24;20.00;99.90
4207;DHT22;2117;47.972;7.830;2023-09-12T05:47:49;19.90;99.90
4207;DHT22;2117;47.972;7.830;2023-09-12T05:50:16;19.80;99.90
4207;DHT22;2117;47.972;7.830;2023-09-12T05:52:41;19.70;99.90
4207;DHT22;2117;47.972;7.830;2023-09-12T05:55:08;19.70;99.90
4207;DHT22;2117;47.972;7.830;2023-09-12T05:57:34;19.70;99.90
4207;DHT22;2117;47.972;7.830;2023-09-12T06:00:00;19.60;99.90
4207;DHT22;2117;47.972;7.830;2023-09-12T06:02:27;19.60;99.90
4207;DHT22;2117;47.972;7.830;2023-09-12T06:04:52;19.60;99.90
4207;DHT22;2117;47.972;7.830;2023-09-12T06:07:18;19.60;99.90
4207;DHT22;2117;47.972;7.830;2023-09-12T06:09:44;19.60;99.90
4207;DHT22;2117;47.972;7.830;2023-09-12T06:12:10;19.60;99.90
4207;DHT22;2117;47.972;7.830;2023-09-12T06:14:35;19.60;99.90
4207;DHT22;2117;47.972;7.830;2023-09-12T06:17:01;19.60;99.90
4207;DHT22;2117;47.972;7.830;2023-09-12T06:19:26;19.70;99.90
4207;DHT22;2117;47.972;7.830;2023-09-12T06:21:52;19.70;99.90
4207;DHT22;2117;47.972;7.830;2023-09-12T06:24:21;19.70;99.90
4207;DHT22;2117;47.972;7.830;2023-09-12T06:26:47;19.70;99.90
4207;DHT22;2117;47.972;7.830;2023-09-12T06:29:14;19.80;99.90
4207;DHT22;2117;47.972;7.830;2023-09-12T06:31:40;19.90;99.90
4207;DHT22;2117;47.972;7.830;2023-09-12T06:34:09;19.90;99.90
4207;DHT22;2117;47.972;7.830;2023-09-12T06:36:35;20.00;99.90
4207;DHT22;2117;47.972;7.830;2023-09-12T06:39:01;20.10;99.90
4207;DHT22;2117;47.972;7.830;2023-09-12T06:41:27;20.10;99.90
4207;DHT22;2117;47.972;7.830;2023-09-12T06:43:53;20.10;99.90
4207;DHT22;2117;47.972;7.830;2023-09-12T06:46:19;20.20;99.90
4207;DHT22;2117;47.972;7.830;2023-09-12T06:48:47;20.30;99.90
4207;DHT22;2117;47.972;7.830;2023-09-12T06:51:15;20.40;99.90
4207;DHT22;2117;47.972;7.830;2023-09-12T06:53:41;20.50;99.90
4207;DHT22;2117;47.972;7.830;2023-09-12T06:56:07;20.70;99.90
4207;DHT22;2117;47.972;7.830;2023-09-12T06:58:33;20.90;99.90
4207;DHT22;2117;47.972;7.830;2023-09-12T07:01:03;21.20;99.90
4207;DHT22;2117;47.972;7.830;2023-09-12T07:03:30;21.20;99.90
4207;DHT22;2117;47.972;7.830;2023-09-12T07:05:55;21.40;99.90
4207;DHT22;2117;47.972;7.830;2023-09-12T07:08:21;21.50;99.90
4207;DHT22;2117;47.972;7.830;2023-09-12T07:10:46;21.70;99.90
4207;DHT22;2117;47.972;7.830;2023-09-12T07:13:12;21.70;99.90
4207;DHT22;2117;47.972;7.830;2023-09-12T07:15:38;21.80;99.90
4207;DHT22;2117;47.972;7.830;2023-09-12T07:18:04;21.90;99.90
4207;DHT22;2117;47.972;7.830;2023-09-12T07:20:32;22.00;99.90
4207;DHT22;2117;47.972;7.830;2023-09-12T07:22:58;22.00;99.90
4207;DHT22;2117;47.972;7.830;2023-09-12T07:25:23;22.10;99.90
4207;DHT22;2117;47.972;7.830;2023-09-12T07:27:50;22.10;99.90
4207;DHT22;2117;47.972;7.830;2023-09-12T07:30:15;22.20;99.90
4207;DHT22;2117;47.972;7.830;2023-09-12T07:32:41;22.20;99.90
4207;DHT22;2117;47.972;7.830;2023-09-12T07:35:07;22.30;99.90
4207;DHT22;2117;47.972;7.830;2023-09-12T07:37:32;22.30;99.90
4207;DHT22;2117;47.972;7.830;2023-09-12T07:39:58;22.30;99.90
4207;DHT22;2117;47.972;7.830;2023-09-12T07:42:24;22.30;99.90
4207;DHT22;2117;47.972;7.830;2023-09-12T07:44:50;22.40;99.90
4207;DHT22;2117;47.972;7.830;2023-09-12T07:47:16;22.50;99.90
4207;DHT22;2117;47.972;7.830;2023-09-12T07:49:41;22.50;99.90
4207;DHT22;2117;47.972;7.830;2023-09-12T07:52:07;22.60;99.90
4207;DHT22;2117;47.972;7.830;2023-09-12T07:54:33;22.60;99.90
4207;DHT22;2117;47.972;7.830;2023-09-12T07:56:59;22.70;99.90
4207;DHT22;2117;47.972;7.830;2023-09-12T07:59:25;22.70;99.90
4207;DHT22;2117;47.972;7.830;2023-09-12T08:01:50;22.70;99.90
4207;DHT22;2117;47.972;7.830;2023-09-12T08:04:17;22.80;99.90
4207;DHT22;2117;47.972;7.830;2023-09-12T08:06:42;22.80;99.90
4207;DHT22;2117;47.972;7.830;2023-09-12T08:09:08;22.90;99.90
4207;DHT22;2117;47.972;7.830;2023-09-12T08:11:34;23.00;99.90
4207;DHT22;2117;47.972;7.830;2023-09-12T08:14:00;23.00;99.90
4207;DHT22;2117;47.972;7.830;2023-09-12T08:16:25;23.10;99.90
4207;DHT22;2117;47.972;7.830;2023-09-12T08:18:51;23.10;99.90
4207;DHT22;2117;47.972;7.830;2023-09-12T08:21:17;23.20;99.90
4207;DHT22;2117;47.972;7.830;2023-09-12T08:23:42;23.20;99.90
4207;DHT22;2117;47.972;7.830;2023-09-12T08:26:08;23.30;99.90
4207;DHT22;2117;47.972;7.830;2023-09-12T08:28:34;23.40;99.90
4207;DHT22;2117;47.972;7.830;2023-09-12T08:31:00;23.50;99.90
4207;DHT22;2117;47.972;7.830;2023-09-12T08:33:25;23.50;99.90
4207;DHT22;2117;47.972;7.830;2023-09-12T08:35:51;23.70;99.90
4207;DHT22;2117;47.972;7.830;2023-09-12T08:38:16;23.70;99.90
4207;DHT22;2117;47.972;7.830;2023-09-12T08:40:50;23.90;99.90
4207;DHT22;2117;47.972;7.830;2023-09-12T08:43:17;24.00;99.90
4207;DHT22;2117;47.972;7.830;2023-09-12T08:45:42;24.20;99.90
4207;DHT22;2117;47.972;7.830;2023-09-12T08:48:12;24.20;99.90
4207;DHT22;2117;47.972;7.830;2023-09-12T08:50:38;24.50;99.90
4207;DHT22;2117;47.972;7.830;2023-09-12T08:53:04;24.50;99.90
4207;DHT22;2117;47.972;7.830;2023-09-12T08:55:31;24.60;99.90
4207;DHT22;2117;47.972;7.830;2023-09-12T08:57:58;24.70;99.90
4207;DHT22;2117;47.972;7.830;2023-09-12T09:00:25;25.10;99.90
4207;DHT22;2117;47.972;7.830;2023-09-12T09:02:52;25.10;99.90
4207;DHT22;2117;47.972;7.830;2023-09-12T09:05:20;25.30;99.90
4207;DHT22;2117;47.972;7.830;2023-09-12T09:07:46;25.40;99.90
4207;DHT22;2117;47.972;7.830;2023-09-12T09:10:17;25.60;99.90
4207;DHT22;2117;47.972;7.830;2023-09-12T09:12:44;25.70;99.90
4207;DHT22;2117;47.972;7.830;2023-09-12T09:17:49;26.00;99.90
4207;DHT22;2117;47.972;7.830;2023-09-12T09:20:29;26.30;99.90
4207;DHT22;2117;47.972;7.830;2023-09-12T09:23:05;26.40;99.90
4207;DHT22;2117;47.972;7.830;2023-09-12T09:25:33;26.50;99.90
4207;DHT22;2117;47.972;7.830;2023-09-12T09:28:04;26.60;99.90
4207;DHT22;2117;47.972;7.830;2023-09-12T09:30:50;26.80;99.90
4207;DHT22;2117;47.972;7.830;2023-09-12T09:33:17;26.90;99.90
4207;DHT22;2117;47.972;7.830;2023-09-12T09:35:45;27.00;99.90
4207;DHT22;2117;47.972;7.830;2023-09-12T09:38:11;27.00;99.90
4207;DHT22;2117;47.972;7.830;2023-09-12T09:40:42;27.30;99.90
4207;DHT22;2117;47.972;7.830;2023-09-12T09:43:08;27.30;99.90
4207;DHT22;2117;47.972;7.830;2023-09-12T09:45:43;27.50;99.90
4207;DHT22;2117;47.972;7.830;2023-09-12T09:48:09;27.60;99.90
4207;DHT22;2117;47.972;7.830;2023-09-12T09:50:35;27.80;99.00
4207;DHT22;2117;47.972;7.830;2023-09-12T09:53:04;27.80;98.10
4207;DHT22;2117;47.972;7.830;2023-09-12T09:55:32;27.90;98.40
4207;DHT22;2117;47.972;7.830;2023-09-12T09:57:58;28.00;98.80
4207;DHT22;2117;47.972;7.830;2023-09-12T10:00:23;28.00;98.20
4207;DHT22;2117;47.972;7.830;2023-09-12T10:02:51;28.00;98.40
4207;DHT22;2117;47.972;7.830;2023-09-12T10:05:18;28.10;97.90
4207;DHT22;2117;47.972;7.830;2023-09-12T10:07:47;28.20;99.40
4207;DHT22;2117;47.972;7.830;2023-09-12T10:10:12;28.30;98.20
4207;DHT22;2117;47.972;7.830;2023-09-12T10:12:45;28.40;98.50
4207;DHT22;2117;47.972;7.830;2023-09-12T10:15:14;28.50;97.70
4207;DHT22;2117;47.972;7.830;2023-09-12T10:17:43;28.50;96.60
4207;DHT22;2117;47.972;7.830;2023-09-12T10:20:20;28.60;95.10
4207;DHT22;2117;47.972;7.830;2023-09-12T10:23:08;28.60;95.10
4207;DHT22;2117;47.972;7.830;2023-09-12T10:25:37;28.80;95.40
4207;DHT22;2117;47.972;7.830;2023-09-12T10:28:05;28.90;95.00
4207;DHT22;2117;47.972;7.830;2023-09-12T10:30:32;28.90;94.10
4207;DHT22;2117;47.972;7.830;2023-09-12T10:33:00;29.00;94.50
4207;DHT22;2117;47.972;7.830;2023-09-12T10:35:26;29.00;95.00
4207;DHT22;2117;47.972;7.830;2023-09-12T10:37:54;29.20;95.80
4207;DHT22;2117;47.972;7.830;2023-09-12T10:40:24;29.30;94.30
4207;DHT22;2117;47.972;7.830;2023-09-12T10:42:51;29.30;94.60
4207;DHT22;2117;47.972;7.830;2023-09-12T10:45:17;29.40;93.90
4207;DHT22;2117;47.972;7.830;2023-09-12T10:47:44;29.50;92.10
4207;DHT22;2117;47.972;7.830;2023-09-12T10:50:10;29.60;91.50
4207;DHT22;2117;47.972;7.830;2023-09-12T10:52:35;29.70;90.40
4207;DHT22;2117;47.972;7.830;2023-09-12T10:55:05;29.80;91.20
4207;DHT22;2117;47.972;7.830;2023-09-12T10:57:31;29.90;91.00
4207;DHT22;2117;47.972;7.830;2023-09-12T11:02:44;29.90;88.70
4207;DHT22;2117;47.972;7.830;2023-09-12T11:08:00;30.30;88.80
4207;DHT22;2117;47.972;7.830;2023-09-12T11:10:26;31.30;85.90
4207;DHT22;2117;47.972;7.830;2023-09-12T11:12:54;31.20;86.50
4207;DHT22;2117;47.972;7.830;2023-09-12T11:15:25;31.50;86.80
4207;DHT22;2117;47.972;7.830;2023-09-12T11:18:02;32.00;85.70
4207;DHT22;2117;47.972;7.830;2023-09-12T11:23:24;33.30;82.20
4207;DHT22;2117;47.972;7.830;2023-09-12T11:26:05;33.60;81.40
4207;DHT22;2117;47.972;7.830;2023-09-12T11:28:31;34.30;79.40
4207;DHT22;2117;47.972;7.830;2023-09-12T11:30:58;34.80;75.60
4207;DHT22;2117;47.972;7.830;2023-09-12T11:33:24;34.90;75.90
4207;DHT22;2117;47.972;7.830;2023-09-12T11:35:53;35.10;75.40
4207;DHT22;2117;47.972;7.830;2023-09-12T11:38:29;35.00;74.20
4207;DHT22;2117;47.972;7.830;2023-09-12T11:40:58;34.30;73.10
4207;DHT22;2117;47.972;7.830;2023-09-12T11:43:25;34.30;74.30
4207;DHT22;2117;47.972;7.830;2023-09-12T11:45:52;34.10;73.30
4207;DHT22;2117;47.972;7.830;2023-09-12T11:48:19;34.00;74.00
4207;DHT22;2117;47.972;7.830;2023-09-12T11:50:55;34.40;72.10
4207;DHT22;2117;47.972;7.830;2023-09-12T11:53:23;34.40;73.10
4207;DHT22;2117;47.972;7.830;2023-09-12T11:55:55;35.10;73.80
4207;DHT22;2117;47.972;7.830;2023-09-12T11:58:22;35.80;70.50
4207;DHT22;2117;47.972;7.830;2023-09-12T12:00:49;36.20;72.00
4207;DHT22;2117;47.972;7.830;2023-09-12T12:03:16;36.20;72.60
4207;DHT22;2117;47.972;7.830;2023-09-12T12:05:43;36.20;69.00
4207;DHT22;2117;47.972;7.830;2023-09-12T12:08:10;36.30;67.50
4207;DHT22;2117;47.972;7.830;2023-09-12T12:10:36;36.00;68.70
4207;DHT22;2117;47.972;7.830;2023-09-12T12:13:04;36.00;69.40
4207;DHT22;2117;47.972;7.830;2023-09-12T12:15:30;36.60;70.90
4207;DHT22;2117;47.972;7.830;2023-09-12T12:17:56;36.70;72.30
4207;DHT22;2117;47.972;7.830;2023-09-12T12:20:21;37.00;68.50
4207;DHT22;2117;47.972;7.830;2023-09-12T12:22:47;37.20;69.50
4207;DHT22;2117;47.972;7.830;2023-09-12T12:25:14;37.40;70.10
4207;DHT22;2117;47.972;7.830;2023-09-12T12:27:41;37.10;67.10
4207;DHT22;2117;47.972;7.830;2023-09-12T12:30:09;36.70;67.70
4207;DHT22;2117;47.972;7.830;2023-09-12T12:32:46;36.50;66.30
4207;DHT22;2117;47.972;7.830;2023-09-12T12:35:19;36.90;69.20
4207;DHT22;2117;47.972;7.830;2023-09-12T12:37:44;37.50;66.40
4207;DHT22;2117;47.972;7.830;2023-09-12T12:40:14;37.60;67.20
4207;DHT22;2117;47.972;7.830;2023-09-12T12:42:40;38.00;66.10
4207;DHT22;2117;47.972;7.830;2023-09-12T12:45:20;37.80;66.90
4207;DHT22;2117;47.972;7.830;2023-09-12T12:47:48;37.80;67.70
4207;DHT22;2117;47.972;7.830;2023-09-12T12:50:16;38.30;67.80
4207;DHT22;2117;47.972;7.830;2023-09-12T12:52:47;38.80;67.10
4207;DHT22;2117;47.972;7.830;2023-09-12T12:55:14;39.40;65.70
4207;DHT22;2117;47.972;7.830;2023-09-12T12:57:42;39.50;66.40
4207;DHT22;2117;47.972;7.830;2023-09-12T13:00:09;39.60;66.60
4207;DHT22;2117;47.972;7.830;2023-09-12T13:02:38;39.90;65.80
4207;DHT22;2117;47.972;7.830;2023-09-12T13:05:06;40.50;62.50
4207;DHT22;2117;47.972;7.830;2023-09-12T13:07:34;40.20;61.80
4207;DHT22;2117;47.972;7.830;2023-09-12T13:10:01;38.90;63.50
4207;DHT22;2117;47.972;7.830;2023-09-12T13:12:27;39.70;64.20
4207;DHT22;2117;47.972;7.830;2023-09-12T13:14:53;39.70;60.50
4207;DHT22;2117;47.972;7.830;2023-09-12T13:17:18;39.60;65.30
4207;DHT22;2117;47.972;7.830;2023-09-12T13:19:44;39.60;66.10
4207;DHT22;2117;47.972;7.830;2023-09-12T13:22:10;40.00;62.70
4207;DHT22;2117;47.972;7.830;2023-09-12T13:24:36;40.50;63.90
4207;DHT22;2117;47.972;7.830;2023-09-12T13:27:01;40.60;61.50
4207;DHT22;2117;47.972;7.830;2023-09-12T13:29:27;41.20;60.40
4207;DHT22;2117;47.972;7.830;2023-09-12T13:31:53;40.90;60.00
4207;DHT22;2117;47.972;7.830;2023-09-12T13:34:18;40.10;57.70
4207;DHT22;2117;47.972;7.830;2023-09-12T13:36:44;40.00;58.00
4207;DHT22;2117;47.972;7.830;2023-09-12T13:39:09;40.20;59.20
4207;DHT22;2117;47.972;7.830;2023-09-12T13:41:38;39.70;55.30
4207;DHT22;2117;47.972;7.830;2023-09-12T13:44:05;39.70;55.00
4207;DHT22;2117;47.972;7.830;2023-09-12T13:46:31;39.40;52.80
4207;DHT22;2117;47.972;7.830;2023-09-12T13:48:56;39.10;55.30
4207;DHT22;2117;47.972;7.830;2023-09-12T13:51:26;39.30;53.20
4207;DHT22;2117;47.972;7.830;2023-09-12T13:53:52;38.90;53.70
4207;DHT22;2117;47.972;7.830;2023-09-12T13:56:17;37.90;54.40
4207;DHT22;2117;47.972;7.830;2023-09-12T13:58:43;37.90;55.00
4207;DHT22;2117;47.972;7.830;2023-09-12T14:01:08;37.70;54.20
4207;DHT22;2117;47.972;7.830;2023-09-12T14:03:34;38.00;53.90
4207;DHT22;2117;47.972;7.830;2023-09-12T14:06:00;38.70;56.20
4207;DHT22;2117;47.972;7.830;2023-09-12T14:08:25;39.30;55.00
4207;DHT22;2117;47.972;7.830;2023-09-12T14:10:51;40.30;54.50
4207;DHT22;2117;47.972;7.830;2023-09-12T14:13:16;40.30;54.10
4207;DHT22;2117;47.972;7.830;2023-09-12T14:15:42;40.30;54.60
4207;DHT22;2117;47.972;7.830;2023-09-12T14:18:07;39.90;51.50
4207;DHT22;2117;47.972;7.830;2023-09-12T14:20:33;39.80;51.90
4207;DHT22;2117;47.972;7.830;2023-09-12T14:22:59;39.90;52.50
4207;DHT22;2117;47.972;7.830;2023-09-12T14:25:24;40.00;53.50
4207;DHT22;2117;47.972;7.830;2023-09-12T14:27:50;39.80;52.40
4207;DHT22;2117;47.972;7.830;2023-09-12T14:30:16;40.10;53.30
4207;DHT22;2117;47.972;7.830;2023-09-12T14:32:41;40.20;52.80
4207;DHT22;2117;47.972;7.830;2023-09-12T14:35:07;40.60;53.70
4207;DHT22;2117;47.972;7.830;2023-09-12T14:37:33;40.50;52.90
4207;DHT22;2117;47.972;7.830;2023-09-12T14:40:00;40.40;53.50
4207;DHT22;2117;47.972;7.830;2023-09-12T14:42:25;40.00;54.40
4207;DHT22;2117;47.972;7.830;2023-09-12T14:44:51;39.60;52.90
4207;DHT22;2117;47.972;7.830;2023-09-12T14:47:16;39.50;52.60
4207;DHT22;2117;47.972;7.830;2023-09-12T14:49:42;39.60;56.00
4207;DHT22;2117;47.972;7.830;2023-09-12T14:52:08;39.70;54.00
4207;DHT22;2117;47.972;7.830;2023-09-12T14:54:34;39.60;54.90
4207;DHT22;2117;47.972;7.830;2023-09-12T14:56:59;39.30;56.70
4207;DHT22;2117;47.972;7.830;2023-09-12T14:59:25;39.50;55.80
4207;DHT22;2117;47.972;7.830;2023-09-12T15:01:50;39.10;54.70
4207;DHT22;2117;47.972;7.830;2023-09-12T15:04:16;39.40;57.10
4207;DHT22;2117;47.972;7.830;2023-09-12T15:06:41;39.60;56.20
4207;DHT22;2117;47.972;7.830;2023-09-12T15:09:07;39.50;55.30
4207;DHT22;2117;47.972;7.830;2023-09-12T15:11:32;39.50;56.10
4207;DHT22;2117;47.972;7.830;2023-09-12T15:13:58;39.60;56.10
4207;DHT22;2117;47.972;7.830;2023-09-12T15:16:25;39.20;55.60
4207;DHT22;2117;47.972;7.830;2023-09-12T15:18:51;39.00;55.90
4207;DHT22;2117;47.972;7.830;2023-09-12T15:21:17;38.00;55.90
4207;DHT22;2117;47.972;7.830;2023-09-12T15:23:43;38.00;57.20
4207;DHT22;2117;47.972;7.830;2023-09-12T15:26:08;37.80;57.20
4207;DHT22;2117;47.972;7.830;2023-09-12T15:28:34;37.20;56.30
4207;DHT22;2117;47.972;7.830;2023-09-12T15:31:00;36.20;57.30
4207;DHT22;2117;47.972;7.830;2023-09-12T15:33:28;36.20;58.00
4207;DHT22;2117;47.972;7.830;2023-09-12T15:35:54;36.00;57.40
4207;DHT22;2117;47.972;7.830;2023-09-12T15:38:19;35.60;59.40
4207;DHT22;2117;47.972;7.830;2023-09-12T15:40:45;34.50;60.30
4207;DHT22;2117;47.972;7.830;2023-09-12T15:43:10;34.50;61.70
4207;DHT22;2117;47.972;7.830;2023-09-12T15:45:36;34.40;63.20
4207;DHT22;2117;47.972;7.830;2023-09-12T15:48:01;34.20;64.10
4207;DHT22;2117;47.972;7.830;2023-09-12T15:50:27;33.50;64.90
4207;DHT22;2117;47.972;7.830;2023-09-12T15:52:52;33.50;65.90
4207;DHT22;2117;47.972;7.830;2023-09-12T15:55:18;33.10;65.70
4207;DHT22;2117;47.972;7.830;2023-09-12T15:57:44;32.90;65.80
4207;DHT22;2117;47.972;7.830;2023-09-12T16:00:10;32.80;66.90
4207;DHT22;2117;47.972;7.830;2023-09-12T16:02:39;32.80;69.80
4207;DHT22;2117;47.972;7.830;2023-09-12T16:05:05;32.60;69.00
4207;DHT22;2117;47.972;7.830;2023-09-12T16:07:31;32.30;67.70
4207;DHT22;2117;47.972;7.830;2023-09-12T16:09:57;32.20;67.70
4207;DHT22;2117;47.972;7.830;2023-09-12T16:12:22;32.00;67.90
4207;DHT22;2117;47.972;7.830;2023-09-12T16:14:48;31.90;69.60
4207;DHT22;2117;47.972;7.830;2023-09-12T16:17:14;31.90;70.10
4207;DHT22;2117;47.972;7.830;2023-09-12T16:19:40;31.70;71.30
4207;DHT22;2117;47.972;7.830;2023-09-12T16:22:05;31.60;70.00
4207;DHT22;2117;47.972;7.830;2023-09-12T16:24:31;31.40;70.70
4207;DHT22;2117;47.972;7.830;2023-09-12T16:26:57;31.40;72.70
4207;DHT22;2117;47.972;7.830;2023-09-12T16:29:26;31.10;70.90
4207;DHT22;2117;47.972;7.830;2023-09-12T16:31:52;31.10;71.80
4207;DHT22;2117;47.972;7.830;2023-09-12T16:34:17;31.10;72.60
4207;DHT22;2117;47.972;7.830;2023-09-12T16:36:43;31.00;74.40
4207;DHT22;2117;47.972;7.830;2023-09-12T16:39:08;30.90;74.80
4207;DHT22;2117;47.972;7.830;2023-09-12T16:41:34;30.60;73.00
4207;DHT22;2117;47.972;7.830;2023-09-12T16:44:00;30.50;74.60
4207;DHT22;2117;47.972;7.830;2023-09-12T16:46:25;30.30;75.00
4207;DHT22;2117;47.972;7.830;2023-09-12T16:48:51;30.10;75.80
4207;DHT22;2117;47.972;7.830;2023-09-12T16:51:16;30.10;76.50
4207;DHT22;2117;47.972;7.830;2023-09-12T16:53:42;30.00;77.50
4207;DHT22;2117;47.972;7.830;2023-09-12T16:56:07;29.90;78.30
4207;DHT22;2117;47.972;7.830;2023-09-12T16:58:33;29.70;78.60
4207;DHT22;2117;47.972;7.830;2023-09-12T17:00:59;29.50;83.50
4207;DHT22;2117;47.972;7.830;2023-09-12T17:03:24;29.50;84.40
4207;DHT22;2117;47.972;7.830;2023-09-12T17:05:50;29.40;86.50
4207;DHT22;2117;47.972;7.830;2023-09-12T17:08:16;29.20;89.00
4207;DHT22;2117;47.972;7.830;2023-09-12T17:10:41;28.80;85.60
4207;DHT22;2117;47.972;7.830;2023-09-12T17:13:07;28.80;83.80